PWSweather.com
Personal Weather Stations
Station Observations
BSWETTER1
Bswetter.de, BraunschweigDE 38106

Bswetter.deBraunschweigDE 38106

Lat: 52.2751483, Lon: 10.5434341

Elevation: 295

Station Type: Davis Vantage II Pro Plus Aktiv

http://bswetter.de/

High Low Average
Temperature 43.1°F6.2°F 28.9°F-1.7°F 36.2°F2.3°F
Dew Point 30.0°F-1.1°F 25.4°F-3.7°F 28.3°F-2.1°F
Winds 11.5 mph SE18.5 mph SE Calm Calm 2.0 mph 3.2 mph
Wind Gusts 15.0 mph24.1 mph -- 3.6 mph5.8 mph
Humidity 88% 57% 73%
Pressure 30.37 in1028.40 in 30.25 in1024.40 in -
Precipitation 0.00 in0.00 in - -
Hour Temp Dew Point Humidity Winds Wind Gusts Pressure Precip Precip Rate Daily Precip Total
12:00 AM 36.6°F2.6°C 28.1°F-2.2°C 71% Calm Calm 1.1 mph1.8 kmh 30.32 in1026.8 mb - 0.00 in0.0 mm 0.00 in0.0 mm
12:10 AM 36.7°F2.6°C 27.8°F-2.3°C 70% Calm Calm -- 30.32 in1026.8 mb - 0.00 in0.0 mm 0.00 in0.0 mm
12:15 AM 36.8°F2.7°C 27.9°F-2.3°C 70% Calm Calm -- 30.32 in1026.8 mb - 0.00 in0.0 mm 0.00 in0.0 mm
12:20 AM 36.7°F2.6°C 28.5°F-1.9°C 72% 2.3 mph E3.7 kmh E 3.5 mph5.6 kmh 30.33 in1027.1 mb - 0.00 in0.0 mm 0.00 in0.0 mm
12:25 AM 36.6°F2.6°C 28.4°F-2.0°C 72% Calm Calm 1.1 mph1.8 kmh 30.33 in1027.1 mb - 0.00 in0.0 mm 0.00 in0.0 mm
12:30 AM 36.5°F2.5°C 28.7°F-1.8°C 73% Calm Calm -- 30.33 in1027.1 mb - 0.00 in0.0 mm 0.00 in0.0 mm
12:35 AM 36.5°F2.5°C 28.7°F-1.8°C 73% Calm Calm -- 30.32 in1026.8 mb - 0.00 in0.0 mm 0.00 in0.0 mm
12:40 AM 36.4°F2.4°C 28.6°F-1.9°C 73% Calm Calm -- 30.32 in1026.8 mb - 0.00 in0.0 mm 0.00 in0.0 mm
12:45 AM 36.3°F2.4°C 28.5°F-1.9°C 73% Calm Calm 1.1 mph1.8 kmh 30.33 in1027.1 mb - 0.00 in0.0 mm 0.00 in0.0 mm
12:50 AM 36.2°F2.3°C 28.4°F-2.0°C 73% Calm Calm -- 30.33 in1027.1 mb - 0.00 in0.0 mm 0.00 in0.0 mm
12:55 AM 36.1°F2.3°C 28.6°F-1.9°C 74% Calm Calm -- 30.33 in1027.1 mb - 0.00 in0.0 mm 0.00 in0.0 mm
01:00 AM 36.0°F2.2°C 28.5°F-1.9°C 74% Calm Calm -- 30.33 in1027.1 mb - 0.00 in0.0 mm 0.00 in0.0 mm
01:10 AM 35.8°F2.1°C 28.3°F-2.1°C 74% Calm Calm -- 30.33 in1027.1 mb - 0.00 in0.0 mm 0.00 in0.0 mm
01:15 AM 35.7°F2.1°C 28.2°F-2.1°C 74% Calm Calm -- 30.33 in1027.1 mb - 0.00 in0.0 mm 0.00 in0.0 mm
01:20 AM 35.7°F2.1°C 28.6°F-1.9°C 75% Calm Calm 1.1 mph1.8 kmh 30.33 in1027.1 mb - 0.00 in0.0 mm 0.00 in0.0 mm
01:25 AM 35.6°F2.0°C 28.1°F-2.2°C 74% Calm Calm -- 30.33 in1027.1 mb - 0.00 in0.0 mm 0.00 in0.0 mm
01:30 AM 35.6°F2.0°C 28.1°F-2.2°C 74% Calm Calm -- 30.33 in1027.1 mb - 0.00 in0.0 mm 0.00 in0.0 mm
01:35 AM 35.5°F1.9°C 28.0°F-2.2°C 74% Calm Calm -- 30.33 in1027.1 mb - 0.00 in0.0 mm 0.00 in0.0 mm
01:40 AM 35.5°F1.9°C 28.0°F-2.2°C 74% Calm Calm -- 30.34 in1027.4 mb - 0.00 in0.0 mm 0.00 in0.0 mm
01:45 AM 35.4°F1.9°C 27.9°F-2.3°C 74% Calm Calm -- 30.34 in1027.4 mb - 0.00 in0.0 mm 0.00 in0.0 mm
01:50 AM 35.4°F1.9°C 27.9°F-2.3°C 74% Calm Calm -- 30.34 in1027.4 mb - 0.00 in0.0 mm 0.00 in0.0 mm
01:55 AM 35.4°F1.9°C 28.3°F-2.1°C 75% Calm Calm -- 30.34 in1027.4 mb - 0.00 in0.0 mm 0.00 in0.0 mm
02:00 AM 35.4°F1.9°C 27.9°F-2.3°C 74% Calm Calm 1.1 mph1.8 kmh 30.34 in1027.4 mb - 0.00 in0.0 mm 0.00 in0.0 mm
02:10 AM 35.4°F1.9°C 28.3°F-2.1°C 75% Calm Calm -- 30.34 in1027.4 mb - 0.00 in0.0 mm 0.00 in0.0 mm
02:15 AM 35.3°F1.8°C 28.2°F-2.1°C 75% 1.1 mph E1.8 kmh E 1.1 mph1.8 kmh 30.34 in1027.4 mb - 0.00 in0.0 mm 0.00 in0.0 mm
02:20 AM 35.1°F1.7°C 28.0°F-2.2°C 75% Calm Calm -- 30.34 in1027.4 mb - 0.00 in0.0 mm 0.00 in0.0 mm
02:25 AM 35.0°F1.7°C 28.2°F-2.1°C 76% Calm Calm -- 30.34 in1027.4 mb - 0.00 in0.0 mm 0.00 in0.0 mm
02:30 AM 35.0°F1.7°C 28.2°F-2.1°C 76% Calm Calm -- 30.34 in1027.4 mb - 0.00 in0.0 mm 0.00 in0.0 mm
02:35 AM 34.9°F1.6°C 28.1°F-2.2°C 76% Calm Calm -- 30.34 in1027.4 mb - 0.00 in0.0 mm 0.00 in0.0 mm
02:40 AM 34.8°F1.6°C 28.0°F-2.2°C 76% Calm Calm -- 30.34 in1027.4 mb - 0.00 in0.0 mm 0.00 in0.0 mm
02:45 AM 34.8°F1.6°C 27.7°F-2.4°C 75% Calm Calm 1.1 mph1.8 kmh 30.34 in1027.4 mb - 0.00 in0.0 mm 0.00 in0.0 mm
02:50 AM 34.8°F1.6°C 27.7°F-2.4°C 75% Calm Calm -- 30.34 in1027.4 mb - 0.00 in0.0 mm 0.00 in0.0 mm
02:55 AM 34.8°F1.6°C 28.0°F-2.2°C 76% Calm Calm -- 30.34 in1027.4 mb - 0.00 in0.0 mm 0.00 in0.0 mm
03:00 AM 34.8°F1.6°C 28.0°F-2.2°C 76% Calm Calm -- 30.34 in1027.4 mb - 0.00 in0.0 mm 0.00 in0.0 mm
03:10 AM 34.7°F1.5°C 27.9°F-2.3°C 76% Calm Calm -- 30.34 in1027.4 mb - 0.00 in0.0 mm 0.00 in0.0 mm
03:15 AM 34.6°F1.4°C 27.8°F-2.3°C 76% Calm Calm -- 30.34 in1027.4 mb - 0.00 in0.0 mm 0.00 in0.0 mm
03:20 AM 34.5°F1.4°C 27.7°F-2.4°C 76% Calm Calm -- 30.34 in1027.4 mb - 0.00 in0.0 mm 0.00 in0.0 mm
03:25 AM 34.3°F1.3°C 27.6°F-2.4°C 76% Calm Calm -- 30.34 in1027.4 mb - 0.00 in0.0 mm 0.00 in0.0 mm
03:30 AM 34.2°F1.2°C 27.4°F-2.6°C 76% Calm Calm -- 30.34 in1027.4 mb - 0.00 in0.0 mm 0.00 in0.0 mm
03:35 AM 34.1°F1.2°C 27.6°F-2.4°C 77% Calm Calm -- 30.34 in1027.4 mb - 0.00 in0.0 mm 0.00 in0.0 mm
03:40 AM 33.9°F1.1°C 27.4°F-2.6°C 77% Calm Calm -- 30.34 in1027.4 mb - 0.00 in0.0 mm 0.00 in0.0 mm
03:45 AM 33.9°F1.1°C 27.4°F-2.6°C 77% Calm Calm -- 30.34 in1027.4 mb - 0.00 in0.0 mm 0.00 in0.0 mm
03:50 AM 33.8°F1.0°C 27.4°F-2.6°C 77% Calm Calm -- 30.34 in1027.4 mb - 0.00 in0.0 mm 0.00 in0.0 mm
03:55 AM 33.7°F0.9°C 27.6°F-2.4°C 78% Calm Calm -- 30.34 in1027.4 mb - 0.00 in0.0 mm 0.00 in0.0 mm
04:00 AM 33.6°F0.9°C 27.2°F-2.7°C 77% Calm Calm -- 30.34 in1027.4 mb - 0.00 in0.0 mm 0.00 in0.0 mm
04:10 AM 33.2°F0.7°C 26.8°F-2.9°C 77% Calm Calm -- 30.34 in1027.4 mb - 0.00 in0.0 mm 0.00 in0.0 mm
04:15 AM 32.8°F0.4°C 26.7°F-2.9°C 78% Calm Calm -- 30.34 in1027.4 mb - 0.00 in0.0 mm 0.00 in0.0 mm
04:20 AM 32.6°F0.3°C 26.5°F-3.1°C 78% Calm Calm -- 30.34 in1027.4 mb - 0.00 in0.0 mm 0.00 in0.0 mm
04:25 AM 32.4°F0.2°C 26.6°F-3.0°C 79% Calm Calm -- 30.34 in1027.4 mb - 0.00 in0.0 mm 0.00 in0.0 mm
04:30 AM 32.3°F0.2°C 26.5°F-3.1°C 79% Calm Calm -- 30.34 in1027.4 mb - 0.00 in0.0 mm 0.00 in0.0 mm
04:35 AM 32.2°F0.1°C 26.7°F-2.9°C 80% Calm Calm -- 30.34 in1027.4 mb - 0.00 in0.0 mm 0.00 in0.0 mm
04:40 AM 32.1°F0.1°C 26.6°F-3.0°C 80% Calm Calm -- 30.34 in1027.4 mb - 0.00 in0.0 mm 0.00 in0.0 mm
04:45 AM 32.0°F0.0°C 26.8°F-2.9°C 81% 1.1 mph E1.8 kmh E 1.1 mph1.8 kmh 30.34 in1027.4 mb - 0.00 in0.0 mm 0.00 in0.0 mm
04:50 AM 31.8°F-0.1°C 26.6°F-3.0°C 81% Calm Calm 1.1 mph1.8 kmh 30.34 in1027.4 mb - 0.00 in0.0 mm 0.00 in0.0 mm
04:55 AM 31.7°F-0.2°C 26.8°F-2.9°C 82% Calm Calm -- 30.34 in1027.4 mb - 0.00 in0.0 mm 0.00 in0.0 mm
05:00 AM 31.6°F-0.2°C 26.7°F-2.9°C 82% Calm Calm -- 30.34 in1027.4 mb - 0.00 in0.0 mm 0.00 in0.0 mm
05:10 AM 31.4°F-0.3°C 26.5°F-3.1°C 82% Calm Calm -- 30.34 in1027.4 mb - 0.00 in0.0 mm 0.00 in0.0 mm
05:15 AM 31.4°F-0.3°C 26.5°F-3.1°C 82% Calm Calm -- 30.34 in1027.4 mb - 0.00 in0.0 mm 0.00 in0.0 mm
05:20 AM 31.3°F-0.4°C 26.4°F-3.1°C 82% Calm Calm -- 30.34 in1027.4 mb - 0.00 in0.0 mm 0.00 in0.0 mm
05:25 AM 31.3°F-0.4°C 26.4°F-3.1°C 82% 1.1 mph E1.8 kmh E 2.3 mph3.7 kmh 30.34 in1027.4 mb - 0.00 in0.0 mm 0.00 in0.0 mm
05:30 AM 31.0°F-0.6°C 26.4°F-3.1°C 83% Calm Calm -- 30.34 in1027.4 mb - 0.00 in0.0 mm 0.00 in0.0 mm
05:35 AM 30.9°F-0.6°C 26.3°F-3.2°C 83% Calm Calm -- 30.34 in1027.4 mb - 0.00 in0.0 mm 0.00 in0.0 mm
05:40 AM 30.9°F-0.6°C 26.3°F-3.2°C 83% Calm Calm -- 30.35 in1027.8 mb - 0.00 in0.0 mm 0.00 in0.0 mm
05:45 AM 30.8°F-0.7°C 26.5°F-3.1°C 84% Calm Calm -- 30.34 in1027.4 mb - 0.00 in0.0 mm 0.00 in0.0 mm
05:50 AM 30.8°F-0.7°C 26.5°F-3.1°C 84% Calm Calm -- 30.35 in1027.8 mb - 0.00 in0.0 mm 0.00 in0.0 mm
05:55 AM 30.6°F-0.8°C 26.3°F-3.2°C 84% Calm Calm -- 30.35 in1027.8 mb - 0.00 in0.0 mm 0.00 in0.0 mm
06:00 AM 30.4°F-0.9°C 26.1°F-3.3°C 84% Calm Calm -- 30.35 in1027.8 mb - 0.00 in0.0 mm 0.00 in0.0 mm
06:10 AM 30.1°F-1.1°C 25.8°F-3.4°C 84% Calm Calm -- 30.35 in1027.8 mb - 0.00 in0.0 mm 0.00 in0.0 mm
06:15 AM 30.1°F-1.1°C 26.1°F-3.3°C 85% Calm Calm -- 30.35 in1027.8 mb - 0.00 in0.0 mm 0.00 in0.0 mm
06:20 AM 30.2°F-1.0°C 26.2°F-3.2°C 85% Calm Calm -- 30.35 in1027.8 mb - 0.00 in0.0 mm 0.00 in0.0 mm
06:25 AM 30.3°F-0.9°C 26.3°F-3.2°C 85% Calm Calm 3.5 mph5.6 kmh 30.35 in1027.8 mb - 0.00 in0.0 mm 0.00 in0.0 mm
06:30 AM 30.1°F-1.1°C 26.1°F-3.3°C 85% 1.1 mph SE1.8 kmh SE 2.3 mph3.7 kmh 30.36 in1028.1 mb - 0.00 in0.0 mm 0.00 in0.0 mm
06:35 AM 30.0°F-1.1°C 26.0°F-3.3°C 85% 3.5 mph SE5.6 kmh SE 3.5 mph5.6 kmh 30.36 in1028.1 mb - 0.00 in0.0 mm 0.00 in0.0 mm
06:40 AM 29.9°F-1.2°C 26.2°F-3.2°C 86% Calm Calm -- 30.36 in1028.1 mb - 0.00 in0.0 mm 0.00 in0.0 mm
06:45 AM 29.9°F-1.2°C 26.2°F-3.2°C 86% Calm Calm 1.1 mph1.8 kmh 30.36 in1028.1 mb - 0.00 in0.0 mm 0.00 in0.0 mm
06:50 AM 29.9°F-1.2°C 26.2°F-3.2°C 86% Calm Calm -- 30.36 in1028.1 mb - 0.00 in0.0 mm 0.00 in0.0 mm
06:55 AM 29.9°F-1.2°C 26.2°F-3.2°C 86% Calm Calm -- 30.36 in1028.1 mb - 0.00 in0.0 mm 0.00 in0.0 mm
07:00 AM 29.9°F-1.2°C 26.2°F-3.2°C 86% Calm Calm 1.1 mph1.8 kmh 30.36 in1028.1 mb - 0.00 in0.0 mm 0.00 in0.0 mm
07:10 AM 29.8°F-1.2°C 26.1°F-3.3°C 86% 1.1 mph S1.8 kmh S 2.3 mph3.7 kmh 30.36 in1028.1 mb - 0.00 in0.0 mm 0.00 in0.0 mm
07:15 AM 29.6°F-1.3°C 25.9°F-3.4°C 86% Calm Calm -- 30.36 in1028.1 mb - 0.00 in0.0 mm 0.00 in0.0 mm
07:20 AM 29.4°F-1.4°C 25.7°F-3.5°C 86% Calm Calm 2.3 mph3.7 kmh 30.36 in1028.1 mb - 0.00 in0.0 mm 0.00 in0.0 mm
07:25 AM 29.2°F-1.6°C 25.5°F-3.6°C 86% Calm Calm -- 30.36 in1028.1 mb - 0.00 in0.0 mm 0.00 in0.0 mm
07:30 AM 29.1°F-1.6°C 25.5°F-3.6°C 86% Calm Calm -- 30.36 in1028.1 mb - 0.00 in0.0 mm 0.00 in0.0 mm
07:35 AM 29.1°F-1.6°C 25.4°F-3.7°C 86% Calm Calm -- 30.36 in1028.1 mb - 0.00 in0.0 mm 0.00 in0.0 mm
07:40 AM 29.1°F-1.6°C 25.7°F-3.5°C 87% 2.3 mph S3.7 kmh S 3.5 mph5.6 kmh 30.36 in1028.1 mb - 0.00 in0.0 mm 0.00 in0.0 mm
07:45 AM 29.0°F-1.7°C 25.6°F-3.6°C 87% Calm Calm -- 30.36 in1028.1 mb - 0.00 in0.0 mm 0.00 in0.0 mm
07:50 AM 29.0°F-1.7°C 25.6°F-3.6°C 87% 1.1 mph S1.8 kmh S 2.3 mph3.7 kmh 30.36 in1028.1 mb - 0.00 in0.0 mm 0.00 in0.0 mm
07:55 AM 29.0°F-1.7°C 25.6°F-3.6°C 87% 1.1 mph S1.8 kmh S 1.1 mph1.8 kmh 30.36 in1028.1 mb - 0.00 in0.0 mm 0.00 in0.0 mm
08:00 AM 28.9°F-1.7°C 25.8°F-3.4°C 88% 1.1 mph S1.8 kmh S 2.3 mph3.7 kmh 30.36 in1028.1 mb - 0.00 in0.0 mm 0.00 in0.0 mm
08:10 AM 29.0°F-1.7°C 25.9°F-3.4°C 88% Calm Calm 1.1 mph1.8 kmh 30.37 in1028.4 mb - 0.00 in0.0 mm 0.00 in0.0 mm
08:15 AM 29.3°F-1.5°C 26.2°F-3.2°C 88% 1.1 mph S1.8 kmh S 2.3 mph3.7 kmh 30.36 in1028.1 mb - 0.00 in0.0 mm 0.00 in0.0 mm
08:20 AM 29.6°F-1.3°C 26.4°F-3.1°C 88% Calm Calm 1.1 mph1.8 kmh 30.36 in1028.1 mb - 0.00 in0.0 mm 0.00 in0.0 mm
08:25 AM 29.9°F-1.2°C 26.8°F-2.9°C 88% Calm Calm 1.1 mph1.8 kmh 30.37 in1028.4 mb - 0.00 in0.0 mm 0.00 in0.0 mm
08:30 AM 30.2°F-1.0°C 27.1°F-2.7°C 88% Calm Calm 2.3 mph3.7 kmh 30.37 in1028.4 mb - 0.00 in0.0 mm 0.00 in0.0 mm
08:35 AM 30.6°F-0.8°C 27.5°F-2.5°C 88% Calm Calm 1.1 mph1.8 kmh 30.37 in1028.4 mb - 0.00 in0.0 mm 0.00 in0.0 mm
08:40 AM 31.1°F-0.5°C 27.9°F-2.3°C 88% Calm Calm 1.1 mph1.8 kmh 30.37 in1028.4 mb - 0.00 in0.0 mm 0.00 in0.0 mm
08:45 AM 31.6°F-0.2°C 28.5°F-1.9°C 88% Calm Calm 1.1 mph1.8 kmh 30.37 in1028.4 mb - 0.00 in0.0 mm 0.00 in0.0 mm
08:50 AM 32.2°F0.1°C 29.0°F-1.7°C 88% Calm Calm 2.3 mph3.7 kmh 30.37 in1028.4 mb - 0.00 in0.0 mm 0.00 in0.0 mm
08:55 AM 32.7°F0.4°C 29.6°F-1.3°C 88% 1.1 mph S1.8 kmh S 3.5 mph5.6 kmh 30.37 in1028.4 mb - 0.00 in0.0 mm 0.00 in0.0 mm
09:00 AM 33.1°F0.6°C 29.4°F-1.4°C 86% Calm Calm 1.1 mph1.8 kmh 30.37 in1028.4 mb - 0.00 in0.0 mm 0.00 in0.0 mm
09:10 AM 33.9°F1.1°C 29.6°F-1.3°C 84% 2.3 mph S3.7 kmh S 3.5 mph5.6 kmh 30.37 in1028.4 mb - 0.00 in0.0 mm 0.00 in0.0 mm
09:15 AM 34.3°F1.3°C 29.4°F-1.4°C 82% 2.3 mph S3.7 kmh S 3.5 mph5.6 kmh 30.37 in1028.4 mb - 0.00 in0.0 mm 0.00 in0.0 mm
09:20 AM 34.7°F1.5°C 29.5°F-1.4°C 81% 1.1 mph SSE1.8 kmh SSE 2.3 mph3.7 kmh 30.37 in1028.4 mb - 0.00 in0.0 mm 0.00 in0.0 mm
09:25 AM 35.0°F1.7°C 29.1°F-1.6°C 79% 2.3 mph SE3.7 kmh SE 3.5 mph5.6 kmh 30.36 in1028.1 mb - 0.00 in0.0 mm 0.00 in0.0 mm
09:30 AM 35.0°F1.7°C 28.9°F-1.7°C 78% 2.3 mph SE3.7 kmh SE 3.5 mph5.6 kmh 30.36 in1028.1 mb - 0.00 in0.0 mm 0.00 in0.0 mm
09:35 AM 35.3°F1.8°C 29.2°F-1.6°C 78% 1.1 mph SE1.8 kmh SE 3.5 mph5.6 kmh 30.36 in1028.1 mb - 0.00 in0.0 mm 0.00 in0.0 mm
09:40 AM 35.7°F2.1°C 28.9°F-1.7°C 76% 3.5 mph SE5.6 kmh SE 3.5 mph5.6 kmh 30.36 in1028.1 mb - 0.00 in0.0 mm 0.00 in0.0 mm
09:45 AM 36.2°F2.3°C 29.3°F-1.5°C 76% 1.1 mph SSE1.8 kmh SSE 3.5 mph5.6 kmh 30.36 in1028.1 mb - 0.00 in0.0 mm 0.00 in0.0 mm
09:50 AM 36.6°F2.6°C 29.4°F-1.4°C 75% 2.3 mph SE3.7 kmh SE 3.5 mph5.6 kmh 30.36 in1028.1 mb - 0.00 in0.0 mm 0.00 in0.0 mm
09:55 AM 36.9°F2.7°C 29.1°F-1.6°C 73% 3.5 mph SE5.6 kmh SE 6.9 mph11.1 kmh 30.36 in1028.1 mb - 0.00 in0.0 mm 0.00 in0.0 mm
10:00 AM 37.1°F2.8°C 29.2°F-1.6°C 73% 2.3 mph SE3.7 kmh SE 3.5 mph5.6 kmh 30.36 in1028.1 mb - 0.00 in0.0 mm 0.00 in0.0 mm
10:10 AM 37.7°F3.2°C 29.1°F-1.6°C 71% 2.3 mph SE3.7 kmh SE 4.6 mph7.4 kmh 30.36 in1028.1 mb - 0.00 in0.0 mm 0.00 in0.0 mm
10:15 AM 37.9°F3.3°C 29.0°F-1.7°C 70% 3.5 mph SE5.6 kmh SE 4.6 mph7.4 kmh 30.36 in1028.1 mb - 0.00 in0.0 mm 0.00 in0.0 mm
10:20 AM 38.1°F3.4°C 29.5°F-1.4°C 71% 1.1 mph SSE1.8 kmh SSE 1.1 mph1.8 kmh 30.36 in1028.1 mb - 0.00 in0.0 mm 0.00 in0.0 mm
10:25 AM 38.4°F3.6°C 28.8°F-1.8°C 68% 3.5 mph SE5.6 kmh SE 6.9 mph11.1 kmh 30.36 in1028.1 mb - 0.00 in0.0 mm 0.00 in0.0 mm
10:30 AM 38.6°F3.7°C 29.3°F-1.5°C 69% 3.5 mph SE5.6 kmh SE 6.9 mph11.1 kmh 30.37 in1028.4 mb - 0.00 in0.0 mm 0.00 in0.0 mm
10:35 AM 39.0°F3.9°C 29.3°F-1.5°C 68% 3.5 mph SE5.6 kmh SE 4.6 mph7.4 kmh 30.37 in1028.4 mb - 0.00 in0.0 mm 0.00 in0.0 mm
10:40 AM 39.4°F4.1°C 29.4°F-1.4°C 67% 4.6 mph SSE7.4 kmh SSE 8.1 mph13.0 kmh 30.37 in1028.4 mb - 0.00 in0.0 mm 0.00 in0.0 mm
10:45 AM 39.6°F4.2°C 29.2°F-1.6°C 66% 1.1 mph S1.8 kmh S 3.5 mph5.6 kmh 30.37 in1028.4 mb - 0.00 in0.0 mm 0.00 in0.0 mm
10:50 AM 39.7°F4.3°C 28.9°F-1.7°C 65% 4.6 mph SE7.4 kmh SE 6.9 mph11.1 kmh 30.37 in1028.4 mb - 0.00 in0.0 mm 0.00 in0.0 mm
10:55 AM 40.0°F4.4°C 29.1°F-1.6°C 65% 3.5 mph SSW5.6 kmh SSW 4.6 mph7.4 kmh 30.37 in1028.4 mb - 0.00 in0.0 mm 0.00 in0.0 mm
11:00 AM 40.4°F4.7°C 29.2°F-1.6°C 64% 4.6 mph SSE7.4 kmh SSE 6.9 mph11.1 kmh 30.37 in1028.4 mb - 0.00 in0.0 mm 0.00 in0.0 mm
11:10 AM 40.8°F4.9°C 29.2°F-1.6°C 63% 3.5 mph S5.6 kmh S 3.5 mph5.6 kmh 30.37 in1028.4 mb - 0.00 in0.0 mm 0.00 in0.0 mm
11:15 AM 41.0°F5.0°C 29.0°F-1.7°C 62% 3.5 mph SSE5.6 kmh SSE 9.2 mph14.8 kmh 30.37 in1028.4 mb - 0.00 in0.0 mm 0.00 in0.0 mm
11:20 AM 41.2°F5.1°C 29.2°F-1.6°C 62% 4.6 mph S7.4 kmh S 8.1 mph13.0 kmh 30.37 in1028.4 mb - 0.00 in0.0 mm 0.00 in0.0 mm
11:25 AM 41.5°F5.3°C 29.8°F-1.2°C 63% 3.5 mph SE5.6 kmh SE 9.2 mph14.8 kmh 30.37 in1028.4 mb - 0.00 in0.0 mm 0.00 in0.0 mm
11:30 AM 41.6°F5.3°C 29.1°F-1.6°C 61% 2.3 mph S3.7 kmh S 5.8 mph9.3 kmh 30.37 in1028.4 mb - 0.00 in0.0 mm 0.00 in0.0 mm
11:35 AM 42.0°F5.6°C 29.5°F-1.4°C 61% 3.5 mph SSE5.6 kmh SSE 4.6 mph7.4 kmh 30.37 in1028.4 mb - 0.00 in0.0 mm 0.00 in0.0 mm
11:40 AM 42.0°F5.6°C 29.1°F-1.6°C 60% 2.3 mph SSE3.7 kmh SSE 8.1 mph13.0 kmh 30.37 in1028.4 mb - 0.00 in0.0 mm 0.00 in0.0 mm
11:45 AM 42.1°F5.6°C 28.8°F-1.8°C 59% 3.5 mph SE5.6 kmh SE 8.1 mph13.0 kmh 30.37 in1028.4 mb - 0.00 in0.0 mm 0.00 in0.0 mm
11:50 AM 42.0°F5.6°C 28.2°F-2.1°C 58% 5.8 mph SE9.3 kmh SE 6.9 mph11.1 kmh 30.37 in1028.4 mb - 0.00 in0.0 mm 0.00 in0.0 mm
11:55 AM 42.0°F5.6°C 28.7°F-1.8°C 59% 2.3 mph SE3.7 kmh SE 8.1 mph13.0 kmh 30.37 in1028.4 mb - 0.00 in0.0 mm 0.00 in0.0 mm
12:00 PM 41.8°F5.4°C 28.1°F-2.2°C 58% 5.8 mph SE9.3 kmh SE 10.4 mph16.7 kmh 30.37 in1028.4 mb - 0.00 in0.0 mm 0.00 in0.0 mm
12:10 PM 41.8°F5.4°C 28.5°F-1.9°C 59% 5.8 mph SE9.3 kmh SE 10.4 mph16.7 kmh 30.37 in1028.4 mb - 0.00 in0.0 mm 0.00 in0.0 mm
12:15 PM 41.7°F5.4°C 28.4°F-2.0°C 59% 5.8 mph S9.3 kmh S 8.1 mph13.0 kmh 30.37 in1028.4 mb - 0.00 in0.0 mm 0.00 in0.0 mm
12:20 PM 41.9°F5.5°C 28.6°F-1.9°C 59% 4.6 mph S7.4 kmh S 6.9 mph11.1 kmh 30.36 in1028.1 mb - 0.00 in0.0 mm 0.00 in0.0 mm
12:25 PM 42.0°F5.6°C 28.7°F-1.8°C 59% 4.6 mph SSE7.4 kmh SSE 8.1 mph13.0 kmh 30.36 in1028.1 mb - 0.00 in0.0 mm 0.00 in0.0 mm
12:30 PM 41.9°F5.5°C 28.1°F-2.2°C 58% 8.1 mph SE13.0 kmh SE 10.4 mph16.7 kmh 30.36 in1028.1 mb - 0.00 in0.0 mm 0.00 in0.0 mm
12:35 PM 41.3°F5.2°C 28.4°F-2.0°C 60% 3.5 mph ESE5.6 kmh ESE 3.5 mph5.6 kmh 30.36 in1028.1 mb - 0.00 in0.0 mm 0.00 in0.0 mm
12:40 PM 41.9°F5.5°C 29.4°F-1.4°C 61% 3.5 mph SSE5.6 kmh SSE 5.8 mph9.3 kmh 30.36 in1028.1 mb - 0.00 in0.0 mm 0.00 in0.0 mm
12:45 PM 42.2°F5.7°C 29.3°F-1.5°C 60% 5.8 mph SE9.3 kmh SE 9.2 mph14.8 kmh 30.36 in1028.1 mb - 0.00 in0.0 mm 0.00 in0.0 mm
12:50 PM 42.4°F5.8°C 29.4°F-1.4°C 60% 3.5 mph SE5.6 kmh SE 4.6 mph7.4 kmh 30.36 in1028.1 mb - 0.00 in0.0 mm 0.00 in0.0 mm
12:55 PM 42.4°F5.8°C 29.1°F-1.6°C 59% 5.8 mph SE9.3 kmh SE 11.5 mph18.5 kmh 30.36 in1028.1 mb - 0.00 in0.0 mm 0.00 in0.0 mm
01:00 PM 42.5°F5.8°C 29.6°F-1.3°C 60% 1.1 mph SSE1.8 kmh SSE 2.3 mph3.7 kmh 30.36 in1028.1 mb - 0.00 in0.0 mm 0.00 in0.0 mm
01:10 PM 42.3°F5.7°C 28.1°F-2.2°C 57% 5.8 mph SE9.3 kmh SE 10.4 mph16.7 kmh 30.35 in1027.8 mb - 0.00 in0.0 mm 0.00 in0.0 mm
01:15 PM 42.3°F5.7°C 29.0°F-1.7°C 59% 3.5 mph SE5.6 kmh SE 9.2 mph14.8 kmh 30.35 in1027.8 mb - 0.00 in0.0 mm 0.00 in0.0 mm
01:20 PM 42.0°F5.6°C 28.7°F-1.8°C 59% 5.8 mph SE9.3 kmh SE 8.1 mph13.0 kmh 30.35 in1027.8 mb - 0.00 in0.0 mm 0.00 in0.0 mm
01:25 PM 42.2°F5.7°C 29.7°F-1.3°C 61% 3.5 mph S5.6 kmh S 6.9 mph11.1 kmh 30.35 in1027.8 mb - 0.00 in0.0 mm 0.00 in0.0 mm
01:30 PM 42.7°F5.9°C 29.4°F-1.4°C 59% 4.6 mph S7.4 kmh S 9.2 mph14.8 kmh 30.34 in1027.4 mb - 0.00 in0.0 mm 0.00 in0.0 mm
01:35 PM 42.8°F6.0°C 29.0°F-1.7°C 58% 5.8 mph SSE9.3 kmh SSE 9.2 mph14.8 kmh 30.34 in1027.4 mb - 0.00 in0.0 mm 0.00 in0.0 mm
01:40 PM 42.7°F5.9°C 28.9°F-1.7°C 58% 4.6 mph SE7.4 kmh SE 9.2 mph14.8 kmh 30.34 in1027.4 mb - 0.00 in0.0 mm 0.00 in0.0 mm
01:45 PM 42.7°F5.9°C 28.9°F-1.7°C 58% 2.3 mph S3.7 kmh S 5.8 mph9.3 kmh 30.34 in1027.4 mb - 0.00 in0.0 mm 0.00 in0.0 mm
01:50 PM 43.1°F6.2°C 29.3°F-1.5°C 58% 8.1 mph SE13.0 kmh SE 10.4 mph16.7 kmh 30.34 in1027.4 mb - 0.00 in0.0 mm 0.00 in0.0 mm
01:55 PM 43.0°F6.1°C 28.8°F-1.8°C 57% 2.3 mph S3.7 kmh S 4.6 mph7.4 kmh 30.34 in1027.4 mb - 0.00 in0.0 mm 0.00 in0.0 mm
02:00 PM 42.8°F6.0°C 28.6°F-1.9°C 57% 11.5 mph SE18.5 kmh SE 15.0 mph24.1 kmh 30.34 in1027.4 mb - 0.00 in0.0 mm 0.00 in0.0 mm
02:10 PM 43.0°F6.1°C 29.2°F-1.6°C 58% 2.3 mph SE3.7 kmh SE 4.6 mph7.4 kmh 30.33 in1027.1 mb - 0.00 in0.0 mm 0.00 in0.0 mm
02:15 PM 42.8°F6.0°C 29.5°F-1.4°C 59% 3.5 mph SSW5.6 kmh SSW 4.6 mph7.4 kmh 30.33 in1027.1 mb - 0.00 in0.0 mm 0.00 in0.0 mm
02:20 PM 42.7°F5.9°C 29.8°F-1.2°C 60% 4.6 mph SSE7.4 kmh SSE 8.1 mph13.0 kmh 30.33 in1027.1 mb - 0.00 in0.0 mm 0.00 in0.0 mm
02:25 PM 42.7°F5.9°C 28.9°F-1.7°C 58% 4.6 mph S7.4 kmh S 5.8 mph9.3 kmh 30.33 in1027.1 mb - 0.00 in0.0 mm 0.00 in0.0 mm
02:30 PM 42.9°F6.1°C 29.1°F-1.6°C 58% 6.9 mph S11.1 kmh S 9.2 mph14.8 kmh 30.33 in1027.1 mb - 0.00 in0.0 mm 0.00 in0.0 mm
02:35 PM 42.9°F6.1°C 29.6°F-1.3°C 59% 6.9 mph SSE11.1 kmh SSE 11.5 mph18.5 kmh 30.33 in1027.1 mb - 0.00 in0.0 mm 0.00 in0.0 mm
02:40 PM 42.9°F6.1°C 30.0°F-1.1°C 60% 2.3 mph S3.7 kmh S 3.5 mph5.6 kmh 30.33 in1027.1 mb - 0.00 in0.0 mm 0.00 in0.0 mm
02:45 PM 42.6°F5.9°C 29.7°F-1.3°C 60% 4.6 mph SE7.4 kmh SE 11.5 mph18.5 kmh 30.32 in1026.8 mb - 0.00 in0.0 mm 0.00 in0.0 mm
02:50 PM 42.2°F5.7°C 29.3°F-1.5°C 60% 6.9 mph SE11.1 kmh SE 8.1 mph13.0 kmh 30.32 in1026.8 mb - 0.00 in0.0 mm 0.00 in0.0 mm
02:55 PM 42.2°F5.7°C 29.7°F-1.3°C 61% 3.5 mph S5.6 kmh S 4.6 mph7.4 kmh 30.32 in1026.8 mb - 0.00 in0.0 mm 0.00 in0.0 mm
03:00 PM 42.5°F5.8°C 30.0°F-1.1°C 61% 4.6 mph ESE7.4 kmh ESE 6.9 mph11.1 kmh 30.32 in1026.8 mb - 0.00 in0.0 mm 0.00 in0.0 mm
03:10 PM 42.5°F5.8°C 30.0°F-1.1°C 61% 2.3 mph SE3.7 kmh SE 4.6 mph7.4 kmh 30.32 in1026.8 mb - 0.00 in0.0 mm 0.00 in0.0 mm
03:15 PM 42.8°F6.0°C 29.9°F-1.2°C 60% 3.5 mph SSE5.6 kmh SSE 5.8 mph9.3 kmh 30.32 in1026.8 mb - 0.00 in0.0 mm 0.00 in0.0 mm
03:20 PM 42.9°F6.1°C 30.0°F-1.1°C 60% Calm Calm 3.5 mph5.6 kmh 30.32 in1026.8 mb - 0.00 in0.0 mm 0.00 in0.0 mm
03:25 PM 42.9°F6.1°C 29.5°F-1.4°C 59% 3.5 mph S5.6 kmh S 5.8 mph9.3 kmh 30.31 in1026.4 mb - 0.00 in0.0 mm 0.00 in0.0 mm
03:30 PM 42.9°F6.1°C 29.6°F-1.3°C 59% 5.8 mph SE9.3 kmh SE 10.4 mph16.7 kmh 30.31 in1026.4 mb - 0.00 in0.0 mm 0.00 in0.0 mm
03:35 PM 42.8°F6.0°C 29.8°F-1.2°C 60% 3.5 mph SSE5.6 kmh SSE 4.6 mph7.4 kmh 30.31 in1026.4 mb - 0.00 in0.0 mm 0.00 in0.0 mm
03:40 PM 43.0°F6.1°C 29.6°F-1.3°C 59% 3.5 mph SE5.6 kmh SE 6.9 mph11.1 kmh 30.31 in1026.4 mb - 0.00 in0.0 mm 0.00 in0.0 mm
03:45 PM 42.8°F6.0°C 29.5°F-1.4°C 59% 6.9 mph SE11.1 kmh SE 8.1 mph13.0 kmh 30.31 in1026.4 mb - 0.00 in0.0 mm 0.00 in0.0 mm
03:50 PM 42.3°F5.7°C 29.8°F-1.2°C 61% 2.3 mph ESE3.7 kmh ESE 3.5 mph5.6 kmh 30.31 in1026.4 mb - 0.00 in0.0 mm 0.00 in0.0 mm
03:55 PM 42.1°F5.6°C 29.7°F-1.3°C 61% 6.9 mph SE11.1 kmh SE 10.4 mph16.7 kmh 30.31 in1026.4 mb - 0.00 in0.0 mm 0.00 in0.0 mm
04:00 PM 41.8°F5.4°C 29.3°F-1.5°C 61% 4.6 mph SSE7.4 kmh SSE 8.1 mph13.0 kmh 30.31 in1026.4 mb - 0.00 in0.0 mm 0.00 in0.0 mm
04:10 PM 41.9°F5.5°C 29.4°F-1.4°C 61% 2.3 mph SE3.7 kmh SE 4.6 mph7.4 kmh 30.31 in1026.4 mb - 0.00 in0.0 mm 0.00 in0.0 mm
04:15 PM 41.8°F5.4°C 28.9°F-1.7°C 60% 5.8 mph SE9.3 kmh SE 9.2 mph14.8 kmh 30.31 in1026.4 mb - 0.00 in0.0 mm 0.00 in0.0 mm
04:20 PM 41.6°F5.3°C 28.7°F-1.8°C 60% 4.6 mph SSE7.4 kmh SSE 6.9 mph11.1 kmh 30.31 in1026.4 mb - 0.00 in0.0 mm 0.00 in0.0 mm
04:25 PM 41.8°F5.4°C 28.9°F-1.7°C 60% 3.5 mph SSE5.6 kmh SSE 5.8 mph9.3 kmh 30.31 in1026.4 mb - 0.00 in0.0 mm 0.00 in0.0 mm
04:30 PM 41.8°F5.4°C 29.3°F-1.5°C 61% 1.1 mph SSE1.8 kmh SSE 2.3 mph3.7 kmh 30.31 in1026.4 mb - 0.00 in0.0 mm 0.00 in0.0 mm
04:35 PM 41.8°F5.4°C 28.9°F-1.7°C 60% 1.1 mph SSE1.8 kmh SSE 3.5 mph5.6 kmh 30.31 in1026.4 mb - 0.00 in0.0 mm 0.00 in0.0 mm
04:40 PM 41.7°F5.4°C 28.9°F-1.7°C 60% 2.3 mph SE3.7 kmh SE 3.5 mph5.6 kmh 30.31 in1026.4 mb - 0.00 in0.0 mm 0.00 in0.0 mm
04:45 PM 41.7°F5.4°C 29.6°F-1.3°C 62% 1.1 mph SE1.8 kmh SE 2.3 mph3.7 kmh 30.31 in1026.4 mb - 0.00 in0.0 mm 0.00 in0.0 mm
04:50 PM 41.5°F5.3°C 29.4°F-1.4°C 62% 4.6 mph SE7.4 kmh SE 8.1 mph13.0 kmh 30.31 in1026.4 mb - 0.00 in0.0 mm 0.00 in0.0 mm
04:55 PM 41.2°F5.1°C 29.5°F-1.4°C 63% 2.3 mph SSE3.7 kmh SSE 5.8 mph9.3 kmh 30.31 in1026.4 mb - 0.00 in0.0 mm 0.00 in0.0 mm
05:00 PM 41.1°F5.1°C 29.8°F-1.2°C 64% 1.1 mph SE1.8 kmh SE 4.6 mph7.4 kmh 30.31 in1026.4 mb - 0.00 in0.0 mm 0.00 in0.0 mm
05:10 PM 40.6°F4.8°C 29.8°F-1.2°C 65% 3.5 mph SE5.6 kmh SE 4.6 mph7.4 kmh 30.30 in1026.1 mb - 0.00 in0.0 mm 0.00 in0.0 mm
05:15 PM 40.5°F4.7°C 29.7°F-1.3°C 65% 1.1 mph SE1.8 kmh SE 3.5 mph5.6 kmh 30.30 in1026.1 mb - 0.00 in0.0 mm 0.00 in0.0 mm
05:20 PM 40.4°F4.7°C 29.9°F-1.2°C 66% 1.1 mph SE1.8 kmh SE 2.3 mph3.7 kmh 30.30 in1026.1 mb - 0.00 in0.0 mm 0.00 in0.0 mm
05:25 PM 40.1°F4.5°C 29.6°F-1.3°C 66% 4.6 mph SE7.4 kmh SE 6.9 mph11.1 kmh 30.30 in1026.1 mb - 0.00 in0.0 mm 0.00 in0.0 mm
05:30 PM 39.7°F4.3°C 29.7°F-1.3°C 67% 3.5 mph SE5.6 kmh SE 3.5 mph5.6 kmh 30.30 in1026.1 mb - 0.00 in0.0 mm 0.00 in0.0 mm
05:35 PM 39.5°F4.2°C 29.4°F-1.4°C 67% 2.3 mph SE3.7 kmh SE 3.5 mph5.6 kmh 30.30 in1026.1 mb - 0.00 in0.0 mm 0.00 in0.0 mm
05:40 PM 39.4°F4.1°C 29.7°F-1.3°C 68% Calm Calm -- 30.30 in1026.1 mb - 0.00 in0.0 mm 0.00 in0.0 mm
05:45 PM 39.4°F4.1°C 29.7°F-1.3°C 68% Calm Calm 1.1 mph1.8 kmh 30.30 in1026.1 mb - 0.00 in0.0 mm 0.00 in0.0 mm
05:50 PM 39.3°F4.1°C 29.6°F-1.3°C 68% Calm Calm -- 30.30 in1026.1 mb - 0.00 in0.0 mm 0.00 in0.0 mm
05:55 PM 39.2°F4.0°C 29.6°F-1.3°C 68% Calm Calm 1.1 mph1.8 kmh 30.30 in1026.1 mb - 0.00 in0.0 mm 0.00 in0.0 mm
06:00 PM 39.1°F3.9°C 29.8°F-1.2°C 69% 1.1 mph SE1.8 kmh SE 3.5 mph5.6 kmh 30.30 in1026.1 mb - 0.00 in0.0 mm 0.00 in0.0 mm
06:10 PM 38.8°F3.8°C 29.5°F-1.4°C 69% 1.1 mph SE1.8 kmh SE 2.3 mph3.7 kmh 30.30 in1026.1 mb - 0.00 in0.0 mm 0.00 in0.0 mm
06:15 PM 38.6°F3.7°C 29.3°F-1.5°C 69% 1.1 mph SE1.8 kmh SE 3.5 mph5.6 kmh 30.30 in1026.1 mb - 0.00 in0.0 mm 0.00 in0.0 mm
06:20 PM 38.4°F3.6°C 29.5°F-1.4°C 70% 1.1 mph SE1.8 kmh SE 3.5 mph5.6 kmh 30.30 in1026.1 mb - 0.00 in0.0 mm 0.00 in0.0 mm
06:25 PM 38.2°F3.4°C 29.3°F-1.5°C 70% 1.1 mph SE1.8 kmh SE 3.5 mph5.6 kmh 30.30 in1026.1 mb - 0.00 in0.0 mm 0.00 in0.0 mm
06:30 PM 38.0°F3.3°C 29.4°F-1.4°C 71% 1.1 mph SE1.8 kmh SE 3.5 mph5.6 kmh 30.30 in1026.1 mb - 0.00 in0.0 mm 0.00 in0.0 mm
06:35 PM 37.7°F3.2°C 29.4°F-1.4°C 72% 3.5 mph SE5.6 kmh SE 6.9 mph11.1 kmh 30.30 in1026.1 mb - 0.00 in0.0 mm 0.00 in0.0 mm
06:40 PM 37.3°F2.9°C 29.1°F-1.6°C 72% 2.3 mph SE3.7 kmh SE 5.8 mph9.3 kmh 30.30 in1026.1 mb - 0.00 in0.0 mm 0.00 in0.0 mm
06:45 PM 37.1°F2.8°C 29.2°F-1.6°C 73% 3.5 mph SE5.6 kmh SE 4.6 mph7.4 kmh 30.30 in1026.1 mb - 0.00 in0.0 mm 0.00 in0.0 mm
06:50 PM 36.9°F2.7°C 29.3°F-1.5°C 74% 3.5 mph SE5.6 kmh SE 4.6 mph7.4 kmh 30.30 in1026.1 mb - 0.00 in0.0 mm 0.00 in0.0 mm
06:55 PM 36.7°F2.6°C 29.2°F-1.6°C 74% 3.5 mph SE5.6 kmh SE 5.8 mph9.3 kmh 30.29 in1025.7 mb - 0.00 in0.0 mm 0.00 in0.0 mm
07:00 PM 36.5°F2.5°C 29.3°F-1.5°C 75% 3.5 mph SE5.6 kmh SE 6.9 mph11.1 kmh 30.29 in1025.7 mb - 0.00 in0.0 mm 0.00 in0.0 mm
07:10 PM 36.2°F2.3°C 29.4°F-1.4°C 76% 2.3 mph SE3.7 kmh SE 3.5 mph5.6 kmh 30.29 in1025.7 mb - 0.00 in0.0 mm 0.00 in0.0 mm
07:15 PM 36.1°F2.3°C 29.3°F-1.5°C 76% 1.1 mph SE1.8 kmh SE 3.5 mph5.6 kmh 30.29 in1025.7 mb - 0.00 in0.0 mm 0.00 in0.0 mm
07:20 PM 36.0°F2.2°C 29.1°F-1.6°C 76% 1.1 mph SSE1.8 kmh SSE 2.3 mph3.7 kmh 30.29 in1025.7 mb - 0.00 in0.0 mm 0.00 in0.0 mm
07:25 PM 35.8°F2.1°C 29.0°F-1.7°C 76% 2.3 mph SSE3.7 kmh SSE 4.6 mph7.4 kmh 30.29 in1025.7 mb - 0.00 in0.0 mm 0.00 in0.0 mm
07:30 PM 35.7°F2.1°C 28.9°F-1.7°C 76% 2.3 mph SSE3.7 kmh SSE 3.5 mph5.6 kmh 30.29 in1025.7 mb - 0.00 in0.0 mm 0.00 in0.0 mm
07:35 PM 35.5°F1.9°C 29.0°F-1.7°C 77% 2.3 mph SE3.7 kmh SE 2.3 mph3.7 kmh 30.29 in1025.7 mb - 0.00 in0.0 mm 0.00 in0.0 mm
07:40 PM 35.4°F1.9°C 28.9°F-1.7°C 77% 3.5 mph SSE5.6 kmh SSE 4.6 mph7.4 kmh 30.29 in1025.7 mb - 0.00 in0.0 mm 0.00 in0.0 mm
07:45 PM 35.2°F1.8°C 28.7°F-1.8°C 77% 2.3 mph SSE3.7 kmh SSE 4.6 mph7.4 kmh 30.29 in1025.7 mb - 0.00 in0.0 mm 0.00 in0.0 mm
07:50 PM 35.1°F1.7°C 28.6°F-1.9°C 77% 3.5 mph SE5.6 kmh SE 5.8 mph9.3 kmh 30.29 in1025.7 mb - 0.00 in0.0 mm 0.00 in0.0 mm
07:55 PM 35.0°F1.7°C 28.5°F-1.9°C 77% 3.5 mph SSE5.6 kmh SSE 5.8 mph9.3 kmh 30.29 in1025.7 mb - 0.00 in0.0 mm 0.00 in0.0 mm
08:00 PM 34.9°F1.6°C 28.7°F-1.8°C 78% 2.3 mph SSE3.7 kmh SSE 3.5 mph5.6 kmh 30.28 in1025.4 mb - 0.00 in0.0 mm 0.00 in0.0 mm
08:10 PM 34.6°F1.4°C 28.4°F-2.0°C 78% 1.1 mph SSE1.8 kmh SSE 3.5 mph5.6 kmh 30.29 in1025.7 mb - 0.00 in0.0 mm 0.00 in0.0 mm
08:15 PM 34.6°F1.4°C 28.4°F-2.0°C 78% 1.1 mph S1.8 kmh S 3.5 mph5.6 kmh 30.29 in1025.7 mb - 0.00 in0.0 mm 0.00 in0.0 mm
08:20 PM 34.5°F1.4°C 28.7°F-1.8°C 79% 2.3 mph S3.7 kmh S 3.5 mph5.6 kmh 30.29 in1025.7 mb - 0.00 in0.0 mm 0.00 in0.0 mm
08:25 PM 34.5°F1.4°C 28.7°F-1.8°C 79% 1.1 mph SSE1.8 kmh SSE 4.6 mph7.4 kmh 30.29 in1025.7 mb - 0.00 in0.0 mm 0.00 in0.0 mm
08:30 PM 34.5°F1.4°C 28.7°F-1.8°C 79% 2.3 mph SSE3.7 kmh SSE 4.6 mph7.4 kmh 30.29 in1025.7 mb - 0.00 in0.0 mm 0.00 in0.0 mm
08:35 PM 34.5°F1.4°C 28.7°F-1.8°C 79% 2.3 mph SE3.7 kmh SE 3.5 mph5.6 kmh 30.29 in1025.7 mb - 0.00 in0.0 mm 0.00 in0.0 mm
08:40 PM 34.4°F1.3°C 28.6°F-1.9°C 79% 1.1 mph SSE1.8 kmh SSE 5.8 mph9.3 kmh 30.28 in1025.4 mb - 0.00 in0.0 mm 0.00 in0.0 mm
08:45 PM 34.3°F1.3°C 28.5°F-1.9°C 79% 3.5 mph SE5.6 kmh SE 3.5 mph5.6 kmh 30.29 in1025.7 mb - 0.00 in0.0 mm 0.00 in0.0 mm
08:50 PM 34.2°F1.2°C 28.4°F-2.0°C 79% 2.3 mph SE3.7 kmh SE 3.5 mph5.6 kmh 30.28 in1025.4 mb - 0.00 in0.0 mm 0.00 in0.0 mm
08:55 PM 34.1°F1.2°C 28.3°F-2.1°C 79% 2.3 mph SSE3.7 kmh SSE 6.9 mph11.1 kmh 30.28 in1025.4 mb - 0.00 in0.0 mm 0.00 in0.0 mm
09:00 PM 34.0°F1.1°C 28.2°F-2.1°C 79% 2.3 mph SSE3.7 kmh SSE 5.8 mph9.3 kmh 30.28 in1025.4 mb - 0.00 in0.0 mm 0.00 in0.0 mm
09:10 PM 33.8°F1.0°C 28.3°F-2.1°C 80% 2.3 mph SSE3.7 kmh SSE 3.5 mph5.6 kmh 30.28 in1025.4 mb - 0.00 in0.0 mm 0.00 in0.0 mm
09:15 PM 33.7°F0.9°C 28.2°F-2.1°C 80% 3.5 mph SSE5.6 kmh SSE 6.9 mph11.1 kmh 30.28 in1025.4 mb - 0.00 in0.0 mm 0.00 in0.0 mm
09:20 PM 33.6°F0.9°C 28.1°F-2.2°C 80% 2.3 mph SSE3.7 kmh SSE 4.6 mph7.4 kmh 30.27 in1025.1 mb - 0.00 in0.0 mm 0.00 in0.0 mm
09:25 PM 33.6°F0.9°C 28.1°F-2.2°C 80% 3.5 mph SSE5.6 kmh SSE 6.9 mph11.1 kmh 30.27 in1025.1 mb - 0.00 in0.0 mm 0.00 in0.0 mm
09:30 PM 33.5°F0.8°C 28.0°F-2.2°C 80% 2.3 mph SE3.7 kmh SE 4.6 mph7.4 kmh 30.27 in1025.1 mb - 0.00 in0.0 mm 0.00 in0.0 mm
09:35 PM 33.5°F0.8°C 28.0°F-2.2°C 80% 3.5 mph SE5.6 kmh SE 4.6 mph7.4 kmh 30.27 in1025.1 mb - 0.00 in0.0 mm 0.00 in0.0 mm
09:40 PM 33.5°F0.8°C 28.0°F-2.2°C 80% 4.6 mph SSE7.4 kmh SSE 6.9 mph11.1 kmh 30.27 in1025.1 mb - 0.00 in0.0 mm 0.00 in0.0 mm
09:45 PM 33.4°F0.8°C 27.9°F-2.3°C 80% 3.5 mph SE5.6 kmh SE 4.6 mph7.4 kmh 30.27 in1025.1 mb - 0.00 in0.0 mm 0.00 in0.0 mm
09:50 PM 33.3°F0.7°C 27.8°F-2.3°C 80% 3.5 mph SE5.6 kmh SE 4.6 mph7.4 kmh 30.27 in1025.1 mb - 0.00 in0.0 mm 0.00 in0.0 mm
09:55 PM 33.3°F0.7°C 28.1°F-2.2°C 81% 5.8 mph SSE9.3 kmh SSE 6.9 mph11.1 kmh 30.27 in1025.1 mb - 0.00 in0.0 mm 0.00 in0.0 mm
10:00 PM 33.2°F0.7°C 28.0°F-2.2°C 81% 2.3 mph SSE3.7 kmh SSE 4.6 mph7.4 kmh 30.27 in1025.1 mb - 0.00 in0.0 mm 0.00 in0.0 mm
10:10 PM 33.2°F0.7°C 28.0°F-2.2°C 81% 3.5 mph SSE5.6 kmh SSE 10.4 mph16.7 kmh 30.26 in1024.7 mb - 0.00 in0.0 mm 0.00 in0.0 mm
10:15 PM 33.2°F0.7°C 27.7°F-2.4°C 80% 3.5 mph SSE5.6 kmh SSE 5.8 mph9.3 kmh 30.26 in1024.7 mb - 0.00 in0.0 mm 0.00 in0.0 mm
10:20 PM 33.2°F0.7°C 27.7°F-2.4°C 80% 2.3 mph SSE3.7 kmh SSE 8.1 mph13.0 kmh 30.26 in1024.7 mb - 0.00 in0.0 mm 0.00 in0.0 mm
10:25 PM 33.1°F0.6°C 27.6°F-2.4°C 80% 2.3 mph SE3.7 kmh SE 4.6 mph7.4 kmh 30.26 in1024.7 mb - 0.00 in0.0 mm 0.00 in0.0 mm
10:30 PM 33.0°F0.6°C 27.8°F-2.3°C 81% 3.5 mph SSE5.6 kmh SSE 3.5 mph5.6 kmh 30.26 in1024.7 mb - 0.00 in0.0 mm 0.00 in0.0 mm
10:35 PM 33.0°F0.6°C 27.8°F-2.3°C 81% 2.3 mph SSE3.7 kmh SSE 4.6 mph7.4 kmh 30.26 in1024.7 mb - 0.00 in0.0 mm 0.00 in0.0 mm
10:40 PM 33.0°F0.6°C 27.8°F-2.3°C 81% 3.5 mph SSE5.6 kmh SSE 4.6 mph7.4 kmh 30.26 in1024.7 mb - 0.00 in0.0 mm 0.00 in0.0 mm
10:45 PM 33.0°F0.6°C 27.8°F-2.3°C 81% 2.3 mph SSE3.7 kmh SSE 3.5 mph5.6 kmh 30.26 in1024.7 mb - 0.00 in0.0 mm 0.00 in0.0 mm
10:50 PM 33.0°F0.6°C 27.8°F-2.3°C 81% 2.3 mph SSE3.7 kmh SSE 4.6 mph7.4 kmh 30.26 in1024.7 mb - 0.00 in0.0 mm 0.00 in0.0 mm
10:55 PM 32.9°F0.5°C 27.7°F-2.4°C 81% 2.3 mph SE3.7 kmh SE 3.5 mph5.6 kmh 30.26 in1024.7 mb - 0.00 in0.0 mm 0.00 in0.0 mm
11:00 PM 32.9°F0.5°C 27.7°F-2.4°C 81% 2.3 mph SSE3.7 kmh SSE 3.5 mph5.6 kmh 30.26 in1024.7 mb - 0.00 in0.0 mm 0.00 in0.0 mm
11:10 PM 32.8°F0.4°C 27.6°F-2.4°C 81% 2.3 mph SSE3.7 kmh SSE 3.5 mph5.6 kmh 30.25 in1024.4 mb - 0.00 in0.0 mm 0.00 in0.0 mm
11:15 PM 32.7°F0.4°C 27.5°F-2.5°C 81% 1.1 mph SSE1.8 kmh SSE 3.5 mph5.6 kmh 30.26 in1024.7 mb - 0.00 in0.0 mm 0.00 in0.0 mm
11:20 PM 32.7°F0.4°C 27.5°F-2.5°C 81% 2.3 mph SSE3.7 kmh SSE 4.6 mph7.4 kmh 30.26 in1024.7 mb - 0.00 in0.0 mm 0.00 in0.0 mm
11:25 PM 32.6°F0.3°C 27.4°F-2.6°C 81% 2.3 mph SE3.7 kmh SE 3.5 mph5.6 kmh 30.26 in1024.7 mb - 0.00 in0.0 mm 0.00 in0.0 mm
11:30 PM 32.6°F0.3°C 27.4°F-2.6°C 81% 1.1 mph SE1.8 kmh SE 4.6 mph7.4 kmh 30.25 in1024.4 mb - 0.00 in0.0 mm 0.00 in0.0 mm
11:35 PM 32.5°F0.3°C 27.6°F-2.4°C 82% 1.1 mph SSE1.8 kmh SSE 3.5 mph5.6 kmh 30.25 in1024.4 mb - 0.00 in0.0 mm 0.00 in0.0 mm
11:40 PM 32.5°F0.3°C 27.6°F-2.4°C 82% 1.1 mph SSE1.8 kmh SSE 3.5 mph5.6 kmh 30.25 in1024.4 mb - 0.00 in0.0 mm 0.00 in0.0 mm
11:45 PM 32.5°F0.3°C 27.6°F-2.4°C 82% 2.3 mph SE3.7 kmh SE 4.6 mph7.4 kmh 30.25 in1024.4 mb - 0.00 in0.0 mm 0.00 in0.0 mm
11:50 PM 32.5°F0.3°C 27.6°F-2.4°C 82% 1.1 mph SE1.8 kmh SE 3.5 mph5.6 kmh 30.25 in1024.4 mb - 0.00 in0.0 mm 0.00 in0.0 mm
11:55 PM 32.5°F0.3°C 27.6°F-2.4°C 82% 1.1 mph SSE1.8 kmh SSE 2.3 mph3.7 kmh 30.25 in1024.4 mb - 0.00 in0.0 mm 0.00 in0.0 mm